createdAt,value
2022-10-03T00:00:02.010Z,0.00
2022-10-03T00:01:01.985Z,0.00
2022-10-03T00:02:02.077Z,0.00
2022-10-03T00:03:02.032Z,0.00
2022-10-03T00:04:01.956Z,0.00
2022-10-03T00:05:01.942Z,0.00
2022-10-03T00:06:01.951Z,0.00
2022-10-03T00:07:01.927Z,0.00
2022-10-03T00:08:01.930Z,0.00
2022-10-03T00:09:01.902Z,0.00
2022-10-03T00:10:01.920Z,0.00
2022-10-03T00:11:01.881Z,0.00
2022-10-03T00:12:01.868Z,0.00
2022-10-03T00:13:01.870Z,0.00
2022-10-03T00:14:01.843Z,0.00
2022-10-03T00:15:01.830Z,0.00
2022-10-03T00:16:01.925Z,0.00
2022-10-03T00:17:01.816Z,0.00
2022-10-03T00:18:01.800Z,0.00
2022-10-03T00:19:01.782Z,0.00
2022-10-03T00:20:01.822Z,0.00
2022-10-03T00:21:01.781Z,0.00
2022-10-03T00:22:01.758Z,0.00
2022-10-03T00:23:01.744Z,0.00
2022-10-03T00:24:01.752Z,0.00
2022-10-03T00:25:01.720Z,0.00
2022-10-03T00:26:01.715Z,0.00
2022-10-03T00:27:01.705Z,0.00
2022-10-03T00:28:01.751Z,0.00
2022-10-03T00:29:01.680Z,0.00
2022-10-03T00:30:01.695Z,0.00
2022-10-03T00:31:01.810Z,0.00
2022-10-03T00:32:01.652Z,0.00
2022-10-03T00:33:01.624Z,0.00
2022-10-03T00:34:01.636Z,0.00
2022-10-03T00:35:01.605Z,0.00
2022-10-03T00:36:01.595Z,0.00
2022-10-03T00:37:01.579Z,0.00
2022-10-03T00:38:01.572Z,0.00
2022-10-03T00:39:01.556Z,0.00
2022-10-03T00:40:01.602Z,0.00
2022-10-03T00:41:01.538Z,0.00
2022-10-03T00:42:01.526Z,0.00
2022-10-03T00:43:01.513Z,0.00
2022-10-03T00:44:01.511Z,0.00
2022-10-03T00:45:01.504Z,0.00
2022-10-03T00:46:01.486Z,0.00
2022-10-03T00:47:01.564Z,0.00
2022-10-03T00:48:01.471Z,0.00
2022-10-03T00:49:01.446Z,0.00
2022-10-03T00:50:01.438Z,0.00
2022-10-03T00:51:01.446Z,0.00
2022-10-03T00:52:01.410Z,0.00
2022-10-03T00:53:01.400Z,0.00
2022-10-03T00:54:01.387Z,0.00
2022-10-03T00:55:01.376Z,0.00
2022-10-03T00:56:01.411Z,0.00
2022-10-03T00:57:01.355Z,0.00
2022-10-03T00:58:01.345Z,0.00
2022-10-03T00:59:01.332Z,0.00
2022-10-03T01:00:01.321Z,0.00
2022-10-03T01:01:01.354Z,0.00
2022-10-03T01:02:01.350Z,0.00
2022-10-03T01:03:01.284Z,0.00
2022-10-03T01:04:01.277Z,0.00
2022-10-03T01:05:01.264Z,0.00
2022-10-03T01:06:01.261Z,0.00
2022-10-03T01:07:01.257Z,0.00
2022-10-03T01:08:01.236Z,0.00
2022-10-03T01:09:01.245Z,0.00
2022-10-03T01:10:01.211Z,0.00
2022-10-03T01:11:01.206Z,0.00
2022-10-03T01:12:01.415Z,0.00
2022-10-03T01:13:01.176Z,0.00
2022-10-03T01:14:01.202Z,0.00
2022-10-03T01:15:01.158Z,0.00
2022-10-03T01:16:01.197Z,0.00
2022-10-03T01:17:01.181Z,0.00
2022-10-03T01:18:01.127Z,0.00
2022-10-03T01:19:01.117Z,0.00
2022-10-03T01:20:01.100Z,0.00
2022-10-03T01:21:01.085Z,0.00
2022-10-03T01:22:01.085Z,0.00
2022-10-03T01:23:01.058Z,0.00
2022-10-03T01:24:01.074Z,0.00
2022-10-03T01:25:01.033Z,0.00
2022-10-03T01:26:01.032Z,0.00
2022-10-03T01:27:01.012Z,0.00
2022-10-03T01:28:01.110Z,0.00
2022-10-03T01:29:00.994Z,0.00
2022-10-03T01:30:01.013Z,0.00
2022-10-03T01:31:01.017Z,0.00
2022-10-03T01:32:00.961Z,0.00
2022-10-03T01:33:00.954Z,0.00
2022-10-03T01:34:00.941Z,0.00
2022-10-03T01:35:00.932Z,0.00
2022-10-03T01:36:00.910Z,0.00
2022-10-03T01:37:00.926Z,0.00
2022-10-03T01:38:00.904Z,0.00
2022-10-03T01:39:00.881Z,0.00
2022-10-03T01:40:00.872Z,0.00
2022-10-03T01:41:00.860Z,0.00
2022-10-03T01:42:00.866Z,0.00
2022-10-03T01:43:00.851Z,0.00
2022-10-03T01:44:00.938Z,0.00
2022-10-03T01:45:00.814Z,0.00
2022-10-03T01:46:00.806Z,0.00
2022-10-03T01:47:00.883Z,0.00
2022-10-03T01:48:00.781Z,0.00
2022-10-03T01:49:00.769Z,0.00
2022-10-03T01:50:00.756Z,0.00
2022-10-03T01:51:00.765Z,0.00
2022-10-03T01:52:00.741Z,0.00
2022-10-03T01:53:00.743Z,0.00
2022-10-03T01:54:00.713Z,0.00
2022-10-03T01:55:00.718Z,0.00
2022-10-03T01:56:00.690Z,0.00
2022-10-03T01:57:00.672Z,0.00
2022-10-03T01:58:00.661Z,0.00
2022-10-03T01:59:00.685Z,0.00
2022-10-03T02:00:00.670Z,0.00
2022-10-03T02:01:00.736Z,0.00
2022-10-03T02:02:00.659Z,0.00
2022-10-03T02:03:00.615Z,0.00
2022-10-03T02:04:00.616Z,0.00
2022-10-03T02:05:00.605Z,0.00
2022-10-03T02:06:00.571Z,0.00
2022-10-03T02:07:00.579Z,0.00
2022-10-03T02:08:00.549Z,0.00
2022-10-03T02:09:00.552Z,0.00
2022-10-03T02:10:00.526Z,0.00
2022-10-03T02:11:07.607Z,0.00
2022-10-03T02:12:00.500Z,0.00
2022-10-03T02:13:00.494Z,0.00
2022-10-03T02:14:00.481Z,0.00
2022-10-03T02:15:00.472Z,0.00
2022-10-03T02:16:00.510Z,0.00
2022-10-03T02:17:00.481Z,0.00
2022-10-03T02:18:00.441Z,0.00
2022-10-03T02:19:00.426Z,0.00
2022-10-03T02:20:00.412Z,0.00
2022-10-03T02:21:00.405Z,0.00
2022-10-03T02:22:00.398Z,0.00
2022-10-03T02:23:00.394Z,0.00
2022-10-03T02:24:00.384Z,0.00
2022-10-03T02:25:00.364Z,0.00
2022-10-03T02:26:00.365Z,0.00
2022-10-03T02:27:00.336Z,0.00
2022-10-03T02:28:00.362Z,0.00
2022-10-03T02:29:00.319Z,0.00
2022-10-03T02:30:00.307Z,0.00
2022-10-03T02:31:00.302Z,0.00
2022-10-03T02:32:00.461Z,0.00
2022-10-03T02:33:00.265Z,0.00
2022-10-03T02:34:00.269Z,0.00
2022-10-03T02:35:00.263Z,0.00
2022-10-03T02:36:00.243Z,0.00
2022-10-03T02:37:00.223Z,0.00
2022-10-03T02:38:00.219Z,0.00
2022-10-03T02:39:00.203Z,0.00
2022-10-03T02:40:00.193Z,0.00
2022-10-03T02:41:00.181Z,0.00
2022-10-03T02:42:00.164Z,0.00
2022-10-03T02:43:00.170Z,0.00
2022-10-03T02:44:00.147Z,0.00
2022-10-03T02:45:00.138Z,0.00
2022-10-03T02:46:00.239Z,0.00
2022-10-03T02:47:00.113Z,0.00
2022-10-03T02:48:27.154Z,0.00
2022-10-03T02:49:01.108Z,0.00
2022-10-03T02:50:00.076Z,0.00
2022-10-03T02:51:00.072Z,0.00
2022-10-03T02:52:00.066Z,0.00
2022-10-03T02:53:00.050Z,0.00
2022-10-03T02:54:00.028Z,0.00
2022-10-03T02:55:00.023Z,0.00
2022-10-03T02:56:00.004Z,0.00
2022-10-03T02:56:59.999Z,0.00
2022-10-03T02:57:59.994Z,0.00
2022-10-03T02:58:59.974Z,0.00
2022-10-03T02:59:59.964Z,0.00
2022-10-03T03:00:59.994Z,0.00
2022-10-03T03:02:00.001Z,0.00
2022-10-03T03:02:59.938Z,0.00
2022-10-03T03:04:00.048Z,0.00
2022-10-03T03:04:59.911Z,0.00
2022-10-03T03:05:59.899Z,0.00
2022-10-03T03:06:59.890Z,0.00
2022-10-03T03:07:59.874Z,0.00
2022-10-03T03:08:59.861Z,0.00
2022-10-03T03:09:59.865Z,0.00
2022-10-03T03:10:59.847Z,0.00
2022-10-03T03:11:59.866Z,0.00
2022-10-03T03:12:59.860Z,0.00
2022-10-03T03:13:59.804Z,0.00
2022-10-03T03:14:59.797Z,0.00
2022-10-03T03:15:59.823Z,0.00
2022-10-03T03:16:59.784Z,0.00
2022-10-03T03:17:59.758Z,0.00
2022-10-03T03:18:59.760Z,0.00
2022-10-03T03:19:59.756Z,0.00
2022-10-03T03:20:59.733Z,0.00
2022-10-03T03:21:59.735Z,0.00
2022-10-03T03:22:59.710Z,0.00
2022-10-03T03:23:59.715Z,0.00
2022-10-03T03:24:59.684Z,0.00
2022-10-03T03:25:59.664Z,0.00
2022-10-03T03:26:59.663Z,0.00
2022-10-03T03:27:59.806Z,0.00
2022-10-03T03:28:59.648Z,0.00
2022-10-03T03:29:59.635Z,0.00
2022-10-03T03:30:59.629Z,0.00
2022-10-03T03:31:59.698Z,0.00
2022-10-03T03:32:59.588Z,0.00
2022-10-03T03:33:59.586Z,0.00
2022-10-03T03:34:59.568Z,0.00
2022-10-03T03:35:59.679Z,0.00
2022-10-03T03:36:59.551Z,0.00
2022-10-03T03:37:59.541Z,0.00
2022-10-03T03:38:59.525Z,0.00
2022-10-03T03:39:59.507Z,0.00
2022-10-03T03:40:59.523Z,0.00
2022-10-03T03:41:59.593Z,0.00
2022-10-03T03:42:59.490Z,0.00
2022-10-03T03:43:59.471Z,0.00
2022-10-03T03:44:59.465Z,0.00
2022-10-03T03:45:59.495Z,0.00
2022-10-03T03:46:59.433Z,0.00
2022-10-03T03:47:59.435Z,0.00
2022-10-03T03:48:59.410Z,0.00
2022-10-03T03:49:59.410Z,0.00
2022-10-03T03:50:59.396Z,0.00
2022-10-03T03:51:59.415Z,0.00
2022-10-03T03:52:59.368Z,0.00
2022-10-03T03:53:59.354Z,0.00
2022-10-03T03:54:59.395Z,0.00
2022-10-03T03:55:59.335Z,0.00
2022-10-03T03:56:59.326Z,0.00
2022-10-03T03:57:59.347Z,0.00
2022-10-03T03:58:59.306Z,0.00
2022-10-03T03:59:59.284Z,0.00
2022-10-03T04:00:59.321Z,0.00
2022-10-03T04:01:59.319Z,0.00
2022-10-03T04:02:59.258Z,0.00
2022-10-03T04:03:59.241Z,0.00
2022-10-03T04:04:59.227Z,0.00
2022-10-03T04:05:59.229Z,0.00
2022-10-03T04:06:59.234Z,0.00
2022-10-03T04:07:59.217Z,0.00
2022-10-03T04:08:59.203Z,0.00
2022-10-03T04:09:59.182Z,0.00
2022-10-03T04:10:59.167Z,0.00
2022-10-03T04:11:59.168Z,0.00
2022-10-03T04:12:59.154Z,0.00
2022-10-03T04:13:59.139Z,0.00
2022-10-03T04:14:59.116Z,0.00
2022-10-03T04:15:59.117Z,0.00
2022-10-03T04:16:59.099Z,0.00
2022-10-03T04:17:59.084Z,0.00
2022-10-03T04:18:59.099Z,0.00
2022-10-03T04:19:59.055Z,0.00
2022-10-03T04:20:59.053Z,0.00
2022-10-03T04:21:59.047Z,0.00
2022-10-03T04:22:59.028Z,0.00
2022-10-03T04:23:59.040Z,0.00
2022-10-03T04:24:59.016Z,0.00
2022-10-03T04:25:58.992Z,0.00
2022-10-03T04:26:58.986Z,0.00
2022-10-03T04:27:59.004Z,0.00
2022-10-03T04:28:58.961Z,0.00
2022-10-03T04:29:58.948Z,0.00
2022-10-03T04:30:58.955Z,0.00
2022-10-03T04:31:59.031Z,0.00
2022-10-03T04:32:58.924Z,0.00
2022-10-03T04:33:58.897Z,0.00
2022-10-03T04:34:58.902Z,0.00
2022-10-03T04:35:58.878Z,0.00
2022-10-03T04:36:58.896Z,0.00
2022-10-03T04:37:58.855Z,0.00
2022-10-03T04:38:58.848Z,0.00
2022-10-03T04:39:58.991Z,0.00
2022-10-03T04:40:58.825Z,0.00
2022-10-03T04:41:58.817Z,0.00
2022-10-03T04:42:58.805Z,0.00
2022-10-03T04:43:58.785Z,0.00
2022-10-03T04:44:58.800Z,0.00
2022-10-03T04:45:58.849Z,0.00
2022-10-03T04:46:58.757Z,0.00
2022-10-03T04:47:58.747Z,0.00
2022-10-03T04:48:58.737Z,0.00
2022-10-03T04:49:58.765Z,0.00
2022-10-03T04:50:58.737Z,0.00
2022-10-03T04:51:58.697Z,0.00
2022-10-03T04:52:58.690Z,0.00
2022-10-03T04:53:58.706Z,0.00
2022-10-03T04:54:58.695Z,0.00
2022-10-03T04:55:58.677Z,0.00
2022-10-03T04:56:58.649Z,0.00
2022-10-03T04:58:02.693Z,0.00
2022-10-03T04:58:59.626Z,0.00
2022-10-03T04:59:58.608Z,0.00
2022-10-03T05:00:58.649Z,0.00
2022-10-03T05:01:58.626Z,0.00
2022-10-03T05:02:58.580Z,0.00
2022-10-03T05:03:58.576Z,0.00
2022-10-03T05:04:58.567Z,0.00
2022-10-03T05:05:58.540Z,0.00
2022-10-03T05:06:58.536Z,0.00
2022-10-03T05:07:58.528Z,0.00
2022-10-03T05:08:58.514Z,0.00
2022-10-03T05:10:01.909Z,0.00
2022-10-03T05:10:58.495Z,0.00
2022-10-03T05:11:58.502Z,0.00
2022-10-03T05:12:58.470Z,0.00
2022-10-03T05:13:58.450Z,0.00
2022-10-03T05:14:58.445Z,0.00
2022-10-03T05:15:58.434Z,0.00
2022-10-03T05:16:58.535Z,0.00
2022-10-03T05:17:58.413Z,0.00
2022-10-03T05:18:58.397Z,0.00
2022-10-03T05:19:58.380Z,0.00
2022-10-03T05:20:58.374Z,0.00
2022-10-03T05:21:58.360Z,0.00
2022-10-03T05:22:58.376Z,0.00
2022-10-03T05:23:58.337Z,0.00
2022-10-03T05:24:58.330Z,0.00
2022-10-03T05:26:16.322Z,0.00
2022-10-03T05:26:59.315Z,0.00
2022-10-03T05:27:58.328Z,0.00
2022-10-03T05:28:58.287Z,0.00
2022-10-03T05:29:58.283Z,0.00
2022-10-03T05:30:58.255Z,0.00
2022-10-03T05:31:58.298Z,0.00
2022-10-03T05:32:58.239Z,0.00
2022-10-03T05:33:58.270Z,0.00
2022-10-03T05:34:58.223Z,0.00
2022-10-03T05:35:58.205Z,0.00
2022-10-03T05:36:58.196Z,0.00
2022-10-03T05:37:58.188Z,0.00
2022-10-03T05:38:58.168Z,0.00
2022-10-03T05:39:58.187Z,0.00
2022-10-03T05:40:58.153Z,0.00
2022-10-03T05:42:21.049Z,0.00
2022-10-03T05:42:59.131Z,0.00
2022-10-03T05:43:58.239Z,0.00
2022-10-03T05:44:58.128Z,0.00
2022-10-03T05:45:58.135Z,0.00
2022-10-03T05:46:58.087Z,5.62
2022-10-03T05:47:58.070Z,5.62
2022-10-03T05:48:58.074Z,5.62
2022-10-03T05:49:58.045Z,5.62
2022-10-03T05:50:58.073Z,5.62
2022-10-03T05:51:58.027Z,5.62
2022-10-03T05:52:58.012Z,5.62
2022-10-03T05:53:58.010Z,5.62
2022-10-03T05:54:58.000Z,5.62
2022-10-03T05:55:57.988Z,5.62
2022-10-03T05:56:57.981Z,5.62
2022-10-03T05:57:57.958Z,5.62
2022-10-03T05:58:57.943Z,5.62
2022-10-03T05:59:57.953Z,11.25
2022-10-03T06:00:57.936Z,11.25
2022-10-03T06:01:57.935Z,11.25
2022-10-03T06:02:58.018Z,11.25
2022-10-03T06:03:57.884Z,11.25
2022-10-03T06:04:57.881Z,11.25
2022-10-03T06:05:57.880Z,11.25
2022-10-03T06:06:57.858Z,11.25
2022-10-03T06:07:57.862Z,11.25
2022-10-03T06:08:57.831Z,11.25
2022-10-03T06:09:57.823Z,11.25
2022-10-03T06:10:57.812Z,11.25
2022-10-03T06:11:57.815Z,16.88
2022-10-03T06:12:57.785Z,16.88
2022-10-03T06:13:57.788Z,16.88
2022-10-03T06:14:57.767Z,16.88
2022-10-03T06:15:57.864Z,16.88
2022-10-03T06:16:57.756Z,16.88
2022-10-03T06:17:57.730Z,16.88
2022-10-03T06:18:57.717Z,16.88
2022-10-03T06:19:57.712Z,16.88
2022-10-03T06:20:57.694Z,16.88
2022-10-03T06:21:57.700Z,22.50
2022-10-03T06:22:58.966Z,22.50
2022-10-03T06:23:57.669Z,22.50
2022-10-03T06:24:57.657Z,22.50
2022-10-03T06:25:57.642Z,22.50
2022-10-03T06:26:57.637Z,22.50
2022-10-03T06:27:57.668Z,22.50
2022-10-03T06:28:57.606Z,22.50
2022-10-03T06:29:57.600Z,28.12
2022-10-03T06:30:57.616Z,28.12
2022-10-03T06:31:57.607Z,28.12
2022-10-03T06:32:57.575Z,28.12
2022-10-03T06:33:57.556Z,28.12
2022-10-03T06:34:57.540Z,28.12
2022-10-03T06:35:57.536Z,28.12
2022-10-03T06:36:57.533Z,28.12
2022-10-03T06:37:57.523Z,33.75
2022-10-03T06:38:57.497Z,28.12
2022-10-03T06:39:57.488Z,33.75
2022-10-03T06:40:57.467Z,33.75
2022-10-03T06:41:57.467Z,33.75
2022-10-03T06:42:57.449Z,33.75
2022-10-03T06:43:57.544Z,33.75
2022-10-03T06:44:57.428Z,33.75
2022-10-03T06:45:57.490Z,33.75
2022-10-03T06:46:57.405Z,33.75
2022-10-03T06:47:57.450Z,39.38
2022-10-03T06:48:57.388Z,33.75
2022-10-03T06:49:57.375Z,33.75
2022-10-03T06:50:57.356Z,33.75
2022-10-03T06:51:57.347Z,33.75
2022-10-03T06:52:57.361Z,33.75
2022-10-03T06:53:57.344Z,39.38
2022-10-03T06:54:57.326Z,39.38
2022-10-03T06:55:57.304Z,39.38
2022-10-03T06:56:57.290Z,39.38
2022-10-03T06:57:57.294Z,39.38
2022-10-03T06:58:57.272Z,39.38
2022-10-03T06:59:57.266Z,39.38
2022-10-03T07:00:57.351Z,39.38
2022-10-03T07:01:57.325Z,39.38
2022-10-03T07:02:57.289Z,39.38
2022-10-03T07:03:57.260Z,39.38
2022-10-03T07:04:57.203Z,39.38
2022-10-03T07:05:57.196Z,45.00
2022-10-03T07:06:57.174Z,45.00
2022-10-03T07:07:57.169Z,56.25
2022-10-03T07:08:57.192Z,61.88
2022-10-03T07:09:57.150Z,56.25
2022-10-03T07:10:57.146Z,56.25
2022-10-03T07:11:57.133Z,56.25
2022-10-03T07:12:57.116Z,56.25
2022-10-03T07:13:57.115Z,101.25
2022-10-03T07:14:57.091Z,84.38
2022-10-03T07:16:20.905Z,50.62
2022-10-03T07:16:58.150Z,50.62
2022-10-03T07:17:57.065Z,50.62
2022-10-03T07:18:57.054Z,56.25
2022-10-03T07:19:57.106Z,56.25
2022-10-03T07:20:57.032Z,56.25
2022-10-03T07:21:57.010Z,56.25
2022-10-03T07:22:57.000Z,56.25
2022-10-03T07:23:56.992Z,56.25
2022-10-03T07:24:56.981Z,106.88
2022-10-03T07:25:56.973Z,95.62
2022-10-03T07:26:56.970Z,78.75
2022-10-03T07:27:56.996Z,106.88
2022-10-03T07:28:56.930Z,78.75
2022-10-03T07:29:56.936Z,146.25
2022-10-03T07:30:56.974Z,450.00
2022-10-03T07:31:56.909Z,630.00
2022-10-03T07:32:56.888Z,534.38
2022-10-03T07:33:56.887Z,562.50
2022-10-03T07:34:56.867Z,517.50
2022-10-03T07:35:56.868Z,270.00
2022-10-03T07:36:56.840Z,123.75
2022-10-03T07:37:56.839Z,123.75
2022-10-03T07:38:56.824Z,157.50
2022-10-03T07:39:56.825Z,168.75
2022-10-03T07:40:56.804Z,315.00
2022-10-03T07:41:56.781Z,230.62
2022-10-03T07:42:56.773Z,180.00
2022-10-03T07:43:56.789Z,157.50
2022-10-03T07:44:56.757Z,208.12
2022-10-03T07:45:56.786Z,213.75
2022-10-03T07:46:56.727Z,213.75
2022-10-03T07:47:56.719Z,168.75
2022-10-03T07:48:56.707Z,163.12
2022-10-03T07:49:56.713Z,354.38
2022-10-03T07:50:56.697Z,877.50
2022-10-03T07:51:56.690Z,1361.25
2022-10-03T07:52:56.670Z,1518.75
2022-10-03T07:53:56.648Z,1485.00
2022-10-03T07:54:56.649Z,933.75
2022-10-03T07:55:56.634Z,320.62
2022-10-03T07:56:56.611Z,123.75
2022-10-03T07:57:56.612Z,118.12
2022-10-03T07:58:56.589Z,112.50
2022-10-03T07:59:56.670Z,112.50
2022-10-03T08:00:56.566Z,106.88
2022-10-03T08:01:56.597Z,106.88
2022-10-03T08:02:56.607Z,101.25
2022-10-03T08:03:56.588Z,101.25
2022-10-03T08:04:56.519Z,101.25
2022-10-03T08:05:56.513Z,101.25
2022-10-03T08:06:56.505Z,101.25
2022-10-03T08:07:56.515Z,95.62
2022-10-03T08:08:56.474Z,95.62
2022-10-03T08:09:56.489Z,95.62
2022-10-03T08:10:56.464Z,95.62
2022-10-03T08:11:56.445Z,101.25
2022-10-03T08:12:56.433Z,95.62
2022-10-03T08:13:56.424Z,95.62
2022-10-03T08:14:56.414Z,101.25
2022-10-03T08:15:56.492Z,101.25
2022-10-03T08:16:56.382Z,101.25
2022-10-03T08:17:56.393Z,101.25
2022-10-03T08:18:56.370Z,101.25
2022-10-03T08:19:56.443Z,101.25
2022-10-03T08:20:56.350Z,101.25
2022-10-03T08:21:56.328Z,101.25
2022-10-03T08:22:56.314Z,101.25
2022-10-03T08:23:56.348Z,101.25
2022-10-03T08:25:00.626Z,101.25
2022-10-03T08:25:57.281Z,101.25
2022-10-03T08:26:56.268Z,101.25
2022-10-03T08:27:56.395Z,101.25
2022-10-03T08:28:56.254Z,101.25
2022-10-03T08:29:56.257Z,101.25
2022-10-03T08:30:56.279Z,101.25
2022-10-03T08:31:56.234Z,101.25
2022-10-03T08:32:56.204Z,101.25
2022-10-03T08:33:56.206Z,101.25
2022-10-03T08:34:56.185Z,101.25
2022-10-03T08:35:56.182Z,106.88
2022-10-03T08:36:56.158Z,106.88
2022-10-03T08:37:56.155Z,106.88
2022-10-03T08:38:56.152Z,106.88
2022-10-03T08:39:56.245Z,106.88
2022-10-03T08:40:56.111Z,101.25
2022-10-03T08:41:56.098Z,106.88
2022-10-03T08:42:56.090Z,106.88
2022-10-03T08:43:56.105Z,106.88
2022-10-03T08:44:56.081Z,101.25
2022-10-03T08:45:56.060Z,101.25
2022-10-03T08:46:56.150Z,101.25
2022-10-03T08:47:56.036Z,101.25
2022-10-03T08:48:56.023Z,101.25
2022-10-03T08:49:56.021Z,101.25
2022-10-03T08:50:56.021Z,101.25
2022-10-03T08:51:55.991Z,101.25
2022-10-03T08:52:55.986Z,101.25
2022-10-03T08:53:55.967Z,101.25
2022-10-03T08:54:55.966Z,84.38
2022-10-03T08:55:55.968Z,84.38
2022-10-03T08:56:55.935Z,95.62
2022-10-03T08:57:55.926Z,101.25
2022-10-03T08:58:55.926Z,101.25
2022-10-03T08:59:55.906Z,106.88
2022-10-03T09:00:55.907Z,106.88
2022-10-03T09:01:56.029Z,106.88
2022-10-03T09:03:28.231Z,84.38
2022-10-03T09:03:56.942Z,101.25
2022-10-03T09:04:55.843Z,101.25
2022-10-03T09:05:55.844Z,112.50
2022-10-03T09:07:20.111Z,112.50
2022-10-03T09:07:56.816Z,112.50
2022-10-03T09:08:55.798Z,112.50
2022-10-03T09:09:55.798Z,101.25
2022-10-03T09:10:55.787Z,112.50
2022-10-03T09:11:55.786Z,118.12
2022-10-03T09:12:55.750Z,112.50
2022-10-03T09:13:55.752Z,112.50
2022-10-03T09:14:55.726Z,106.88
2022-10-03T09:15:55.798Z,95.62
2022-10-03T09:16:55.716Z,95.62
2022-10-03T09:17:55.705Z,106.88
2022-10-03T09:18:55.693Z,106.88
2022-10-03T09:19:55.683Z,118.12
2022-10-03T09:20:55.671Z,112.50
2022-10-03T09:21:55.655Z,118.12
2022-10-03T09:22:55.639Z,118.12
2022-10-03T09:23:55.644Z,112.50
2022-10-03T09:24:55.617Z,101.25
2022-10-03T09:25:55.607Z,112.50
2022-10-03T09:26:55.600Z,101.25
2022-10-03T09:27:55.664Z,90.00
2022-10-03T09:28:55.571Z,101.25
2022-10-03T09:29:55.580Z,78.75
2022-10-03T09:30:55.611Z,95.62
2022-10-03T09:31:55.597Z,78.75
2022-10-03T09:32:55.521Z,106.88
2022-10-03T09:33:55.510Z,84.38
2022-10-03T09:34:55.510Z,106.88
2022-10-03T09:35:55.495Z,106.88
2022-10-03T09:36:55.481Z,106.88
2022-10-03T09:37:55.467Z,95.62
2022-10-03T09:38:55.451Z,106.88
2022-10-03T09:39:55.459Z,112.50
2022-10-03T09:40:55.452Z,112.50
2022-10-03T09:41:55.422Z,112.50
2022-10-03T09:42:55.406Z,112.50
2022-10-03T09:43:55.419Z,112.50
2022-10-03T09:44:55.385Z,112.50
2022-10-03T09:45:55.384Z,112.50
2022-10-03T09:46:55.427Z,112.50
2022-10-03T09:47:55.363Z,106.88
2022-10-03T09:48:55.339Z,112.50
2022-10-03T09:49:55.342Z,112.50
2022-10-03T09:50:55.360Z,112.50
2022-10-03T09:51:55.323Z,118.12
2022-10-03T09:52:55.292Z,112.50
2022-10-03T09:53:55.290Z,112.50
2022-10-03T09:54:55.283Z,106.88
2022-10-03T09:55:55.261Z,95.62
2022-10-03T09:56:55.245Z,118.12
2022-10-03T09:57:55.249Z,118.12
2022-10-03T09:58:55.223Z,112.50
2022-10-03T09:59:55.235Z,112.50
2022-10-03T10:00:55.305Z,95.62
2022-10-03T10:01:55.200Z,61.88
2022-10-03T10:02:55.189Z,50.62
2022-10-03T10:03:55.234Z,73.12
2022-10-03T10:04:56.186Z,73.12
2022-10-03T10:05:55.146Z,95.62
2022-10-03T10:06:55.131Z,78.75
2022-10-03T10:07:55.141Z,118.12
2022-10-03T10:08:55.114Z,118.12
2022-10-03T10:09:55.115Z,106.88
2022-10-03T10:10:55.108Z,95.62
2022-10-03T10:11:55.079Z,106.88
2022-10-03T10:12:55.065Z,118.12
2022-10-03T10:14:10.233Z,95.62
2022-10-03T10:14:56.052Z,95.62
2022-10-03T10:15:55.129Z,123.75
2022-10-03T10:16:55.111Z,123.75
2022-10-03T10:17:55.015Z,123.75
2022-10-03T10:18:54.999Z,90.00
2022-10-03T10:19:55.004Z,112.50
2022-10-03T10:20:54.970Z,106.88
2022-10-03T10:21:54.969Z,56.25
2022-10-03T10:22:54.958Z,106.88
2022-10-03T10:23:54.950Z,106.88
2022-10-03T10:24:54.936Z,90.00
2022-10-03T10:25:54.935Z,90.00
2022-10-03T10:26:54.908Z,90.00
2022-10-03T10:27:54.955Z,118.12
2022-10-03T10:28:54.903Z,112.50
2022-10-03T10:29:54.869Z,106.88
2022-10-03T10:30:54.866Z,106.88
2022-10-03T10:31:54.972Z,90.00
2022-10-03T10:32:54.838Z,95.62
2022-10-03T10:33:54.830Z,56.25
2022-10-03T10:34:54.824Z,50.62
2022-10-03T10:35:54.802Z,106.88
2022-10-03T10:36:54.795Z,118.12
2022-10-03T10:37:54.789Z,106.88
2022-10-03T10:38:54.783Z,56.25
2022-10-03T10:39:54.756Z,106.88
2022-10-03T10:40:54.763Z,106.88
2022-10-03T10:41:54.734Z,95.62
2022-10-03T10:42:54.731Z,95.62
2022-10-03T10:43:54.711Z,95.62
2022-10-03T10:44:54.712Z,95.62
2022-10-03T10:45:54.695Z,95.62
2022-10-03T10:46:54.793Z,95.62
2022-10-03T10:47:54.685Z,101.25
2022-10-03T10:48:54.664Z,101.25
2022-10-03T10:50:01.459Z,106.88
2022-10-03T10:50:54.642Z,106.88
2022-10-03T10:51:54.620Z,106.88
2022-10-03T10:52:54.611Z,78.75
2022-10-03T10:53:54.607Z,56.25
2022-10-03T10:54:54.589Z,56.25
2022-10-03T10:55:54.589Z,56.25
2022-10-03T10:56:54.580Z,106.88
2022-10-03T10:57:54.565Z,101.25
2022-10-03T10:58:54.545Z,90.00
2022-10-03T10:59:54.528Z,84.38
2022-10-03T11:00:54.587Z,84.38
2022-10-03T11:01:54.511Z,84.38
2022-10-03T11:02:54.507Z,50.62
2022-10-03T11:03:54.507Z,50.62
2022-10-03T11:04:54.515Z,56.25
2022-10-03T11:05:54.461Z,95.62
2022-10-03T11:06:54.451Z,56.25
2022-10-03T11:07:54.461Z,45.00
2022-10-03T11:08:54.427Z,56.25
2022-10-03T11:09:54.414Z,39.38
2022-10-03T11:10:54.412Z,39.38
2022-10-03T11:11:54.392Z,39.38
2022-10-03T11:12:54.385Z,45.00
2022-10-03T11:13:54.381Z,45.00
2022-10-03T11:14:54.360Z,45.00
2022-10-03T11:15:54.384Z,50.62
2022-10-03T11:16:54.386Z,50.62
2022-10-03T11:17:54.323Z,50.62
2022-10-03T11:18:54.323Z,50.62
2022-10-03T11:19:54.321Z,50.62
2022-10-03T11:20:54.296Z,56.25
2022-10-03T11:21:54.276Z,56.25
2022-10-03T11:22:54.278Z,67.50
2022-10-03T11:23:54.263Z,101.25
2022-10-03T11:24:54.247Z,101.25
2022-10-03T11:25:54.240Z,50.62
2022-10-03T11:26:54.223Z,50.62
2022-10-03T11:27:54.250Z,56.25
2022-10-03T11:28:54.204Z,84.38
2022-10-03T11:29:54.197Z,101.25
2022-10-03T11:30:54.186Z,106.88
2022-10-03T11:31:54.192Z,84.38
2022-10-03T11:32:54.154Z,106.88
2022-10-03T11:33:54.139Z,84.38
2022-10-03T11:34:54.131Z,90.00
2022-10-03T11:35:54.153Z,118.12
2022-10-03T11:36:54.128Z,95.62
2022-10-03T11:37:54.093Z,95.62
2022-10-03T11:38:54.084Z,56.25
2022-10-03T11:39:54.073Z,73.12
2022-10-03T11:40:54.073Z,56.25
2022-10-03T11:41:54.054Z,56.25
2022-10-03T11:42:54.053Z,56.25
2022-10-03T11:43:57.271Z,61.88
2022-10-03T11:44:55.020Z,50.62
2022-10-03T11:45:54.082Z,50.62
2022-10-03T11:46:54.001Z,56.25
2022-10-03T11:47:53.977Z,56.25
2022-10-03T11:48:53.981Z,61.88
2022-10-03T11:49:53.979Z,61.88
2022-10-03T11:50:53.954Z,50.62
2022-10-03T11:51:54.001Z,61.88
2022-10-03T11:52:53.926Z,67.50
2022-10-03T11:54:07.448Z,73.12
2022-10-03T11:54:54.906Z,90.00
2022-10-03T11:55:53.903Z,56.25
2022-10-03T11:56:53.913Z,56.25
2022-10-03T11:57:53.868Z,90.00
2022-10-03T11:58:53.866Z,95.62
2022-10-03T11:59:53.862Z,101.25
2022-10-03T12:00:53.843Z,95.62
2022-10-03T12:01:53.892Z,106.88
2022-10-03T12:02:53.957Z,106.88
2022-10-03T12:03:53.798Z,101.25
2022-10-03T12:04:53.829Z,95.62
2022-10-03T12:05:53.779Z,95.62
2022-10-03T12:06:53.791Z,73.12
2022-10-03T12:07:58.138Z,95.62
2022-10-03T12:08:53.746Z,78.75
2022-10-03T12:09:53.733Z,67.50
2022-10-03T12:10:53.749Z,73.12
2022-10-03T12:11:53.718Z,90.00
2022-10-03T12:12:53.701Z,84.38
2022-10-03T12:13:53.701Z,73.12
2022-10-03T12:14:53.677Z,67.50
2022-10-03T12:15:53.669Z,84.38
2022-10-03T12:16:53.718Z,84.38
2022-10-03T12:17:53.647Z,45.00
2022-10-03T12:19:02.339Z,73.12
2022-10-03T12:20:01.200Z,50.62
2022-10-03T12:20:55.661Z,50.62
2022-10-03T12:21:53.616Z,45.00
2022-10-03T12:22:53.587Z,45.00
2022-10-03T12:23:53.595Z,39.38
2022-10-03T12:24:53.569Z,33.75
2022-10-03T12:25:53.550Z,33.75
2022-10-03T12:26:53.547Z,33.75
2022-10-03T12:27:53.572Z,39.38
2022-10-03T12:28:53.520Z,45.00
2022-10-03T12:29:53.507Z,33.75
2022-10-03T12:30:53.497Z,28.12
2022-10-03T12:31:53.503Z,28.12
2022-10-03T12:32:53.505Z,28.12
2022-10-03T12:33:53.486Z,28.12
2022-10-03T12:34:53.545Z,28.12
2022-10-03T12:35:54.434Z,33.75
2022-10-03T12:36:53.502Z,33.75
2022-10-03T12:37:53.411Z,33.75
2022-10-03T12:38:53.416Z,33.75
2022-10-03T12:39:53.413Z,33.75
2022-10-03T12:40:53.383Z,33.75
2022-10-03T12:41:53.368Z,33.75
2022-10-03T12:42:53.360Z,28.12
2022-10-03T12:43:53.378Z,28.12
2022-10-03T12:44:53.384Z,45.00
2022-10-03T12:45:53.375Z,45.00
2022-10-03T12:46:53.317Z,39.38
2022-10-03T12:47:56.183Z,39.38
2022-10-03T12:48:53.295Z,33.75
2022-10-03T12:49:53.289Z,28.12
2022-10-03T12:50:53.292Z,28.12
2022-10-03T12:51:53.274Z,28.12
2022-10-03T12:52:53.246Z,28.12
2022-10-03T12:53:53.274Z,28.12
2022-10-03T12:54:53.228Z,28.12
2022-10-03T12:55:53.246Z,28.12
2022-10-03T12:56:53.226Z,28.12
2022-10-03T12:57:53.185Z,28.12